createdAt,value
2018-12-26T00:02:33.020Z,75.14
2018-12-26T00:06:38.129Z,75.09
2018-12-26T00:10:43.202Z,75.19
2018-12-26T00:14:48.258Z,75.24
2018-12-26T00:18:53.357Z,75.07
2018-12-26T00:22:58.657Z,75.07
2018-12-26T00:27:03.801Z,75.15
2018-12-26T00:31:08.958Z,75.32
2018-12-26T00:35:14.232Z,75.25
2018-12-26T00:39:19.595Z,75.42
2018-12-26T00:43:24.729Z,75.25
2018-12-26T00:47:29.906Z,75.06
2018-12-26T00:51:35.018Z,75.06
2018-12-26T00:55:40.365Z,75.02
2018-12-26T00:59:45.325Z,75.01
2018-12-26T01:03:50.580Z,75.06
2018-12-26T01:07:55.735Z,75.13
2018-12-26T01:12:00.869Z,75.13
2018-12-26T01:16:06.029Z,74.94
2018-12-26T01:20:11.222Z,74.92
2018-12-26T01:24:16.291Z,74.56
2018-12-26T01:28:21.288Z,74.57
2018-12-26T01:32:26.602Z,74.66
2018-12-26T01:36:31.808Z,74.66
2018-12-26T01:40:36.874Z,74.57
2018-12-26T01:44:41.919Z,74.62
2018-12-26T01:48:47.094Z,74.53
2018-12-26T01:52:52.220Z,74.57
2018-12-26T01:56:57.699Z,74.52
2018-12-26T02:01:03.293Z,74.48
2018-12-26T02:05:08.417Z,74.40
2018-12-26T02:09:13.966Z,74.38
2018-12-26T02:13:19.049Z,74.27
2018-12-26T02:17:24.057Z,74.15
2018-12-26T02:21:29.125Z,74.13
2018-12-26T02:25:34.278Z,74.13
2018-12-26T02:29:39.350Z,73.99
2018-12-26T02:33:44.685Z,74.05
2018-12-26T02:37:49.790Z,74.00
2018-12-26T02:41:54.855Z,73.72
2018-12-26T02:45:59.918Z,73.63
2018-12-26T02:50:06.202Z,73.56
2018-12-26T02:54:11.257Z,73.49
2018-12-26T02:58:16.387Z,73.53
2018-12-26T03:02:21.500Z,73.43
2018-12-26T03:06:26.563Z,73.82
2018-12-26T03:10:31.572Z,73.98
2018-12-26T03:14:37.083Z,73.71
2018-12-26T03:18:42.172Z,73.81
2018-12-26T03:22:47.258Z,73.99
2018-12-26T03:26:56.323Z,73.85
2018-12-26T03:30:59.047Z,73.75
2018-12-26T03:35:04.466Z,73.71
2018-12-26T03:39:09.625Z,73.75
2018-12-26T03:48:23.596Z,73.31
2018-12-26T03:52:28.691Z,73.55
2018-12-26T03:56:33.746Z,73.54
2018-12-26T04:00:38.849Z,73.59
2018-12-26T04:04:43.911Z,73.66
2018-12-26T04:08:49.064Z,73.43
2018-12-26T04:12:54.322Z,73.47
2018-12-26T04:16:59.421Z,73.16
2018-12-26T04:21:04.520Z,73.08
2018-12-26T04:25:09.668Z,72.79
2018-12-26T04:29:14.686Z,72.78
2018-12-26T04:33:19.793Z,72.84
2018-12-26T04:37:24.845Z,72.66
2018-12-26T04:41:29.945Z,72.35
2018-12-26T04:45:34.999Z,72.51
2018-12-26T04:49:40.176Z,72.49
2018-12-26T04:53:45.210Z,72.39
2018-12-26T04:57:50.276Z,72.45
2018-12-26T05:01:55.284Z,72.44
2018-12-26T05:06:00.407Z,72.36
2018-12-26T05:10:05.656Z,72.58
2018-12-26T05:14:10.719Z,72.40
2018-12-26T05:18:15.851Z,72.40
2018-12-26T05:22:21.076Z,72.20
2018-12-26T05:26:26.251Z,72.33
2018-12-26T05:30:31.320Z,72.40
2018-12-26T05:34:36.472Z,72.07
2018-12-26T05:38:41.552Z,72.12
2018-12-26T05:42:46.643Z,71.85
2018-12-26T05:46:51.650Z,71.72
2018-12-26T05:50:56.699Z,71.81
2018-12-26T05:55:01.689Z,71.93
2018-12-26T05:59:06.747Z,71.67
2018-12-26T06:03:11.829Z,71.41
2018-12-26T06:07:16.850Z,71.05
2018-12-26T06:11:22.188Z,70.92
2018-12-26T06:15:27.317Z,71.23
2018-12-26T06:19:32.412Z,71.51
2018-12-26T06:23:37.450Z,71.21
2018-12-26T06:27:51.259Z,71.20
2018-12-26T06:31:55.050Z,70.89
2018-12-26T06:36:00.145Z,70.91
2018-12-26T06:40:05.414Z,71.01
2018-12-26T06:44:10.437Z,71.22
2018-12-26T06:48:15.497Z,70.89
2018-12-26T06:52:20.528Z,70.26
2018-12-26T06:56:25.605Z,70.07
2018-12-26T07:00:30.709Z,70.98
2018-12-26T07:04:35.785Z,71.52
2018-12-26T07:08:40.821Z,70.52
2018-12-26T07:12:45.806Z,70.08
2018-12-26T07:16:50.852Z,70.75
2018-12-26T07:20:55.814Z,70.65
2018-12-26T07:25:00.850Z,71.27
2018-12-26T07:29:05.901Z,71.08
2018-12-26T07:33:10.991Z,71.15
2018-12-26T07:37:17.461Z,71.05
2018-12-26T07:41:22.576Z,70.68
2018-12-26T07:45:28.480Z,70.33
2018-12-26T07:49:33.603Z,70.26
2018-12-26T07:53:38.745Z,70.28
2018-12-26T07:57:43.837Z,69.88
2018-12-26T08:01:49.039Z,69.13
2018-12-26T08:05:54.051Z,68.36
2018-12-26T08:09:59.083Z,67.20
2018-12-26T08:14:04.140Z,66.22
2018-12-26T08:18:28.316Z,65.54
2018-12-26T08:22:33.304Z,64.17
2018-12-26T08:26:57.579Z,63.63
2018-12-26T08:31:02.983Z,63.35
2018-12-26T08:35:07.968Z,63.63
2018-12-26T08:39:12.946Z,64.02
2018-12-26T08:43:17.996Z,64.40
2018-12-26T08:47:23.060Z,64.55
2018-12-26T08:51:28.124Z,64.87
2018-12-26T08:55:33.280Z,65.32
2018-12-26T08:59:38.329Z,64.63
2018-12-26T09:03:43.499Z,63.54
2018-12-26T09:07:48.684Z,62.45
2018-12-26T09:11:53.796Z,61.33
2018-12-26T09:15:59.001Z,60.72
2018-12-26T09:20:04.365Z,59.29
2018-12-26T09:24:09.421Z,60.01
2018-12-26T09:28:14.447Z,57.72
2018-12-26T09:32:19.512Z,58.24
2018-12-26T09:36:24.644Z,57.26
2018-12-26T09:40:29.714Z,58.23
2018-12-26T09:44:34.709Z,57.69
2018-12-26T09:48:39.581Z,57.48
2018-12-26T09:52:44.681Z,59.04
2018-12-26T09:56:49.675Z,59.75
2018-12-26T10:00:54.730Z,59.70
2018-12-26T10:04:59.751Z,58.81
2018-12-26T10:09:06.355Z,57.78
2018-12-26T10:13:11.448Z,58.83
2018-12-26T10:17:16.506Z,57.39
2018-12-26T10:21:21.573Z,57.80
2018-12-26T10:25:26.642Z,56.95
2018-12-26T10:29:31.954Z,56.40
2018-12-26T10:33:36.998Z,54.22
2018-12-26T10:37:42.019Z,56.36
2018-12-26T10:41:47.122Z,54.10
2018-12-26T10:45:52.201Z,54.82
2018-12-26T10:49:57.275Z,52.98
2018-12-26T10:54:02.353Z,53.70
2018-12-26T10:58:07.440Z,52.78
2018-12-26T11:02:12.983Z,52.46
2018-12-26T11:06:17.949Z,51.55
2018-12-26T11:10:23.040Z,50.92
2018-12-26T11:14:28.119Z,50.98
2018-12-26T11:18:33.309Z,52.30
2018-12-26T11:22:38.425Z,51.04
2018-12-26T11:26:43.575Z,51.15
2018-12-26T11:30:50.314Z,51.60
2018-12-26T11:34:55.351Z,50.13
2018-12-26T11:39:00.575Z,53.04
2018-12-26T11:43:05.917Z,51.92
2018-12-26T11:47:10.937Z,53.57
2018-12-26T11:51:16.004Z,52.39
2018-12-26T11:55:21.170Z,52.41
2018-12-26T11:59:27.405Z,53.40
2018-12-26T12:03:39.522Z,53.11
2018-12-26T12:07:44.457Z,52.30
2018-12-26T12:11:49.793Z,51.82
2018-12-26T12:15:54.863Z,51.91
2018-12-26T12:19:59.972Z,52.47
2018-12-26T12:24:05.102Z,50.82
2018-12-26T12:28:10.395Z,49.68
2018-12-26T12:32:15.538Z,48.76
2018-12-26T12:36:31.393Z,50.43
2018-12-26T12:40:55.571Z,48.74
2018-12-26T12:45:00.675Z,50.34
2018-12-26T12:49:05.788Z,49.91
2018-12-26T12:53:10.926Z,48.40
2018-12-26T12:57:16.064Z,49.69
2018-12-26T13:01:21.149Z,49.89
2018-12-26T13:05:26.311Z,50.04
2018-12-26T13:09:31.377Z,50.22
2018-12-26T13:13:36.339Z,50.46
2018-12-26T13:17:41.412Z,49.32
2018-12-26T13:21:47.521Z,49.82
2018-12-26T13:25:52.578Z,50.01
2018-12-26T13:29:57.678Z,51.04
2018-12-26T13:34:02.806Z,50.77
2018-12-26T13:38:08.139Z,51.16
2018-12-26T13:42:13.209Z,52.45
2018-12-26T13:46:18.422Z,52.37
2018-12-26T13:50:23.692Z,51.29
2018-12-26T13:54:30.380Z,51.46
2018-12-26T13:58:35.576Z,51.51
2018-12-26T14:02:40.716Z,51.73
2018-12-26T14:06:45.828Z,52.21
2018-12-26T14:10:51.091Z,50.75
2018-12-26T14:14:56.168Z,51.49
2018-12-26T14:19:01.298Z,52.20
2018-12-26T14:23:06.581Z,52.18
2018-12-26T14:27:11.644Z,52.17
2018-12-26T14:31:16.801Z,52.86
2018-12-26T14:35:21.927Z,52.67
2018-12-26T14:39:27.048Z,53.87
2018-12-26T14:43:32.075Z,53.41
2018-12-26T14:47:37.169Z,52.62
2018-12-26T14:51:42.374Z,52.54
2018-12-26T14:55:47.553Z,52.35
2018-12-26T14:59:52.589Z,50.59
2018-12-26T15:03:57.765Z,50.07
2018-12-26T15:08:02.910Z,48.24
2018-12-26T15:12:27.111Z,48.02
2018-12-26T15:16:32.365Z,48.02
2018-12-26T15:20:37.451Z,50.00
2018-12-26T15:24:42.597Z,53.17
2018-12-26T15:28:47.697Z,56.12
2018-12-26T15:32:52.826Z,57.47
2018-12-26T15:36:57.814Z,61.11
2018-12-26T15:41:02.905Z,62.54
2018-12-26T15:45:07.953Z,62.54
2018-12-26T15:49:13.124Z,63.25
2018-12-26T15:53:18.213Z,63.66
2018-12-26T15:57:23.305Z,64.21
2018-12-26T16:01:28.351Z,63.40
2018-12-26T16:05:33.498Z,62.44
2018-12-26T16:09:38.748Z,62.80
2018-12-26T16:13:43.831Z,63.20
2018-12-26T16:17:49.053Z,63.28
2018-12-26T16:21:54.246Z,63.33
2018-12-26T16:25:59.239Z,63.11
2018-12-26T16:30:04.601Z,63.78
2018-12-26T16:34:09.768Z,64.16
2018-12-26T16:38:26.649Z,64.28
2018-12-26T16:42:31.886Z,64.28
2018-12-26T16:46:36.956Z,63.81
2018-12-26T16:50:41.980Z,64.19
2018-12-26T16:54:46.974Z,64.58
2018-12-26T16:58:51.959Z,64.55
2018-12-26T17:02:57.055Z,64.33
2018-12-26T17:07:02.431Z,64.96
2018-12-26T17:11:07.485Z,65.43
2018-12-26T17:15:12.842Z,65.79
2018-12-26T17:19:18.004Z,67.10
2018-12-26T17:23:23.060Z,65.96
2018-12-26T17:27:28.091Z,67.14
2018-12-26T17:31:33.141Z,67.34
2018-12-26T17:35:38.296Z,67.44
2018-12-26T17:39:43.378Z,67.58
2018-12-26T17:43:48.407Z,67.99
2018-12-26T17:47:53.507Z,68.02
2018-12-26T17:51:58.551Z,67.72
2018-12-26T17:56:17.066Z,68.18
2018-12-26T18:01:00.279Z,67.86
2018-12-26T18:05:05.484Z,66.74
2018-12-26T18:09:10.573Z,67.72
2018-12-26T18:13:15.647Z,66.91
2018-12-26T18:17:21.737Z,66.81
2018-12-26T18:21:26.865Z,66.05
2018-12-26T18:25:31.999Z,66.68
2018-12-26T18:29:37.110Z,67.45
2018-12-26T18:33:42.214Z,68.08
2018-12-26T18:37:47.186Z,67.89
2018-12-26T18:41:52.270Z,67.19
2018-12-26T18:45:57.439Z,68.46
2018-12-26T18:50:02.563Z,68.46
2018-12-26T18:54:07.582Z,69.07
2018-12-26T18:58:12.960Z,69.63
2018-12-26T19:02:18.007Z,69.83
2018-12-26T19:06:23.231Z,69.68
2018-12-26T19:10:28.132Z,69.92
2018-12-26T19:14:33.491Z,69.80
2018-12-26T19:18:38.783Z,70.30
2018-12-26T19:22:43.820Z,70.41
2018-12-26T19:26:48.745Z,70.63
2018-12-26T19:30:55.479Z,70.46
2018-12-26T19:35:00.629Z,70.63
2018-12-26T19:39:07.327Z,69.32
2018-12-26T19:43:12.280Z,69.51
2018-12-26T19:47:17.369Z,69.25
2018-12-26T19:51:22.503Z,69.99
2018-12-26T19:55:27.710Z,70.16
2018-12-26T19:59:32.779Z,70.12
2018-12-26T20:03:37.841Z,69.30
2018-12-26T20:12:12.880Z,67.89
2018-12-26T20:16:17.979Z,68.18
2018-12-26T20:20:23.009Z,69.66
2018-12-26T20:24:28.073Z,68.61
2018-12-26T20:28:33.087Z,67.89
2018-12-26T20:32:38.161Z,69.56
2018-12-26T20:36:43.240Z,69.97
2018-12-26T20:40:48.340Z,70.24
2018-12-26T20:44:53.435Z,69.87
2018-12-26T20:48:58.943Z,70.18
2018-12-26T20:53:04.018Z,69.24
2018-12-26T20:57:09.476Z,68.92
2018-12-26T21:01:14.592Z,69.44
2018-12-26T21:05:19.633Z,70.63
2018-12-26T21:09:24.681Z,70.17
2018-12-26T21:13:29.731Z,69.19
2018-12-26T21:17:34.740Z,69.29
2018-12-26T21:21:39.891Z,67.53
2018-12-26T21:25:46.713Z,68.25
2018-12-26T21:29:51.807Z,69.02
2018-12-26T21:33:56.886Z,69.86
2018-12-26T21:38:01.935Z,69.03
2018-12-26T21:42:07.032Z,69.04
2018-12-26T21:46:12.100Z,69.19
2018-12-26T21:50:17.174Z,68.59
2018-12-26T21:54:22.319Z,69.32
2018-12-26T21:58:27.416Z,68.87
2018-12-26T22:02:32.532Z,69.36
2018-12-26T22:06:37.661Z,68.50
2018-12-26T22:10:42.760Z,67.85
2018-12-26T22:14:47.793Z,68.61
2018-12-26T22:18:52.879Z,69.13
2018-12-26T22:22:58.023Z,68.72
2018-12-26T22:27:03.075Z,68.35
2018-12-26T22:31:08.131Z,68.03
2018-12-26T22:35:13.208Z,68.81
2018-12-26T22:39:18.270Z,69.70
2018-12-26T22:43:23.431Z,69.97
2018-12-26T22:47:28.559Z,69.35
2018-12-26T22:51:42.072Z,70.21
2018-12-26T22:55:53.257Z,70.26
2018-12-26T22:59:58.606Z,68.21
2018-12-26T23:04:03.773Z,70.06
2018-12-26T23:08:08.807Z,70.44
2018-12-26T23:12:13.968Z,70.38
2018-12-26T23:16:19.046Z,70.97
2018-12-26T23:20:24.144Z,71.73
2018-12-26T23:24:29.208Z,71.10
2018-12-26T23:28:34.207Z,71.24
2018-12-26T23:32:46.734Z,70.02
2018-12-26T23:36:51.399Z,69.85
2018-12-26T23:40:56.419Z,70.40
2018-12-26T23:45:01.485Z,70.26
2018-12-26T23:49:06.537Z,70.20
2018-12-26T23:53:11.596Z,69.78
2018-12-26T23:57:16.727Z,70.35
